createdAt,value
2018-07-30T00:02:05.089Z,23.70
2018-07-30T00:04:39.309Z,23.70
2018-07-30T00:07:14.336Z,23.60
2018-07-30T00:13:03.612Z,23.50
2018-07-30T00:15:45.611Z,23.50
2018-07-30T00:18:33.660Z,23.50
2018-07-30T00:21:12.423Z,23.50
2018-07-30T00:23:45.061Z,23.50
2018-07-30T00:26:19.993Z,23.50
2018-07-30T00:28:59.335Z,23.40
2018-07-30T00:44:20.300Z,23.20
2018-07-30T00:53:48.164Z,23.20
2018-07-30T00:57:04.462Z,23.10
2018-07-30T00:59:43.912Z,23.10
2018-07-30T01:02:17.710Z,23.10
2018-07-30T01:04:51.928Z,22.90
2018-07-30T01:07:27.260Z,22.90
2018-07-30T01:10:02.112Z,22.90
2018-07-30T01:12:35.096Z,22.90
2018-07-30T01:15:09.972Z,22.90
2018-07-30T01:17:43.728Z,22.80
2018-07-30T01:20:15.330Z,22.70
2018-07-30T01:22:47.452Z,22.60
2018-07-30T01:25:19.390Z,22.60
2018-07-30T01:27:54.138Z,22.50
2018-07-30T01:30:24.903Z,22.50
2018-07-30T01:36:06.275Z,22.60
2018-07-30T01:38:37.528Z,22.60
2018-07-30T01:41:13.883Z,22.60
2018-07-30T01:44:10.877Z,22.60
2018-07-30T01:46:55.391Z,22.60
2018-07-30T01:49:29.819Z,22.50
2018-07-30T01:52:11.491Z,22.50
2018-07-30T01:54:46.955Z,22.50
2018-07-30T01:57:20.270Z,22.50
2018-07-30T02:02:48.812Z,22.50
2018-07-30T02:05:24.114Z,22.40
2018-07-30T02:07:59.828Z,22.50
2018-07-30T02:10:31.591Z,22.40
2018-07-30T02:13:23.003Z,22.40
2018-07-30T02:16:04.300Z,22.30
2018-07-30T02:18:48.555Z,22.20
2018-07-30T02:21:43.022Z,22.10
2018-07-30T02:27:19.122Z,22.10
2018-07-30T02:30:07.378Z,22.20
2018-07-30T02:32:45.958Z,22.30
2018-07-30T02:50:22.228Z,22.40
2018-07-30T02:53:12.737Z,22.30
2018-07-30T02:56:13.153Z,22.30
2018-07-30T02:58:52.309Z,22.20
2018-07-30T03:01:28.949Z,22.00
2018-07-30T03:04:12.298Z,22.00
2018-07-30T03:09:31.883Z,21.90
2018-07-30T03:12:10.387Z,21.90
2018-07-30T03:14:54.929Z,21.90
2018-07-30T03:17:43.516Z,21.80
2018-07-30T03:20:17.151Z,21.80
2018-07-30T03:22:48.122Z,21.90
2018-07-30T03:25:18.453Z,22.00
2018-07-30T03:27:49.883Z,22.00
2018-07-30T03:30:18.971Z,22.00
2018-07-30T03:32:49.368Z,22.00
2018-07-30T03:35:18.988Z,21.90
2018-07-30T03:37:50.344Z,21.80
2018-07-30T03:40:20.808Z,21.80
2018-07-30T03:42:52.056Z,21.70
2018-07-30T03:45:22.989Z,21.80
2018-07-30T03:48:03.447Z,21.70
2018-07-30T03:50:33.323Z,21.70
2018-07-30T03:53:03.076Z,21.60
2018-07-30T03:55:33.461Z,21.50
2018-07-30T03:58:08.905Z,21.50
2018-07-30T04:00:41.295Z,21.60
2018-07-30T04:03:17.741Z,21.60
2018-07-30T04:05:50.523Z,21.60
2018-07-30T04:08:20.956Z,21.60
2018-07-30T04:10:51.675Z,21.70
2018-07-30T04:13:35.316Z,21.70
2018-07-30T04:18:52.413Z,21.60
2018-07-30T04:21:24.238Z,21.60
2018-07-30T04:23:59.138Z,21.50
2018-07-30T04:26:56.701Z,21.60
2018-07-30T04:29:33.275Z,21.50
2018-07-30T04:32:11.789Z,21.60
2018-07-30T04:34:57.060Z,21.60
2018-07-30T04:37:28.614Z,21.60
2018-07-30T04:40:10.761Z,21.70
2018-07-30T04:42:42.372Z,21.70
2018-07-30T04:45:16.581Z,21.70
2018-07-30T04:47:48.401Z,21.70
2018-07-30T04:50:18.514Z,21.70
2018-07-30T04:52:49.698Z,21.80
2018-07-30T04:55:24.087Z,21.90
2018-07-30T04:57:56.796Z,22.00
2018-07-30T05:04:42.800Z,22.00
2018-07-30T05:07:19.899Z,22.10
2018-07-30T05:18:05.969Z,22.40
2018-07-30T05:20:37.621Z,22.90
2018-07-30T05:23:12.734Z,22.90
2018-07-30T05:25:43.980Z,22.90
2018-07-30T05:28:15.155Z,23.00
2018-07-30T05:30:52.643Z,23.30
2018-07-30T05:33:23.779Z,24.20
2018-07-30T05:35:58.608Z,25.10
2018-07-30T05:38:30.745Z,25.90
2018-07-30T05:41:02.748Z,26.80
2018-07-30T05:43:37.368Z,27.20
2018-07-30T05:46:13.016Z,28.00
2018-07-30T05:48:53.444Z,28.30
2018-07-30T05:51:31.349Z,28.70
2018-07-30T05:54:17.824Z,29.30
2018-07-30T05:56:49.166Z,30.00
2018-07-30T05:59:24.645Z,30.20
2018-07-30T06:01:55.652Z,30.50
2018-07-30T06:04:40.888Z,31.00
2018-07-30T06:07:12.334Z,30.90
2018-07-30T06:09:43.088Z,30.70
2018-07-30T06:12:15.429Z,30.50
2018-07-30T06:14:44.817Z,31.10
2018-07-30T06:17:16.915Z,31.40
2018-07-30T06:19:51.479Z,31.50
2018-07-30T06:22:22.155Z,31.80
2018-07-30T06:24:51.602Z,31.80
2018-07-30T06:27:21.236Z,31.90
2018-07-30T06:29:51.385Z,32.60
2018-07-30T06:32:21.060Z,33.00
2018-07-30T06:34:50.280Z,33.00
2018-07-30T06:37:21.530Z,33.10
2018-07-30T06:39:53.463Z,33.00
2018-07-30T06:42:23.400Z,32.70
2018-07-30T06:44:53.485Z,32.80
2018-07-30T06:47:22.664Z,32.80
2018-07-30T06:49:52.679Z,32.70
2018-07-30T06:52:22.254Z,32.90
2018-07-30T06:54:51.206Z,33.10
2018-07-30T06:57:20.994Z,33.20
2018-07-30T06:59:50.422Z,33.30
2018-07-30T07:02:19.280Z,33.20
2018-07-30T07:04:48.073Z,32.80
2018-07-30T07:07:18.683Z,32.80
2018-07-30T07:09:47.720Z,33.40
2018-07-30T07:12:19.938Z,32.80
2018-07-30T07:14:51.038Z,33.30
2018-07-30T07:17:24.778Z,33.00
2018-07-30T07:20:18.732Z,33.30
2018-07-30T07:22:58.520Z,33.70
2018-07-30T07:25:42.828Z,34.50
2018-07-30T07:31:05.064Z,33.80
2018-07-30T07:33:49.374Z,34.20
2018-07-30T07:36:23.268Z,35.10
2018-07-30T07:38:53.612Z,35.30
2018-07-30T07:41:24.634Z,35.40
2018-07-30T07:43:54.261Z,35.70
2018-07-30T07:46:24.545Z,35.20
2018-07-30T07:48:54.176Z,35.50
2018-07-30T07:51:24.432Z,35.60
2018-07-30T07:56:22.772Z,36.60
2018-07-30T07:58:52.786Z,36.80
2018-07-30T08:04:21.522Z,37.50
2018-07-30T08:06:59.089Z,37.90
2018-07-30T08:09:34.643Z,37.90
2018-07-30T08:15:05.108Z,38.20
2018-07-30T08:20:36.619Z,38.10
2018-07-30T08:29:28.152Z,37.70
2018-07-30T08:34:59.460Z,39.80
2018-07-30T08:44:22.038Z,39.80
2018-07-30T08:47:16.137Z,38.40
2018-07-30T08:50:22.024Z,38.20
2018-07-30T08:55:42.947Z,38.70
2018-07-30T08:58:19.435Z,38.40
2018-07-30T09:00:55.971Z,38.80
2018-07-30T09:03:36.774Z,39.30
2018-07-30T09:06:11.864Z,39.50
2018-07-30T09:09:00.924Z,39.60
2018-07-30T09:11:38.967Z,39.60
2018-07-30T09:14:13.400Z,40.00
2018-07-30T09:16:57.348Z,40.00
2018-07-30T09:19:58.687Z,39.90
2018-07-30T09:22:40.005Z,39.90
2018-07-30T09:25:28.893Z,39.70
2018-07-30T09:28:18.499Z,39.60
2018-07-30T09:36:15.989Z,39.40
2018-07-30T09:39:01.410Z,38.80
2018-07-30T09:41:44.856Z,38.20
2018-07-30T09:44:26.285Z,37.80
2018-07-30T09:47:06.715Z,37.50
2018-07-30T09:53:04.899Z,37.20
2018-07-30T10:07:43.497Z,36.60
2018-07-30T10:10:26.572Z,36.40
2018-07-30T10:13:11.054Z,36.00
2018-07-30T10:19:47.368Z,35.30
2018-07-30T10:22:31.392Z,35.90
2018-07-30T10:25:21.068Z,35.80
2018-07-30T10:28:10.466Z,35.80
2018-07-30T10:30:55.253Z,35.70
2018-07-30T10:33:26.836Z,35.50
2018-07-30T10:36:02.550Z,35.20
2018-07-30T10:38:33.905Z,35.00
2018-07-30T10:41:10.575Z,35.50
2018-07-30T10:43:55.236Z,35.80
2018-07-30T10:46:57.904Z,36.10
2018-07-30T10:49:46.655Z,36.50
2018-07-30T10:52:39.199Z,36.70
2018-07-30T10:55:34.427Z,36.90
2018-07-30T10:58:20.933Z,36.90
2018-07-30T11:01:05.227Z,36.70
2018-07-30T11:03:43.725Z,36.60
2018-07-30T11:06:29.017Z,36.60
2018-07-30T11:24:32.556Z,35.70
2018-07-30T11:27:17.843Z,35.30
2018-07-30T11:29:57.891Z,35.60
2018-07-30T11:32:45.314Z,35.80
2018-07-30T11:35:42.759Z,36.10
2018-07-30T11:38:14.242Z,36.30
2018-07-30T11:40:47.917Z,36.20
2018-07-30T11:43:25.327Z,36.30
2018-07-30T11:46:03.406Z,36.50
2018-07-30T11:55:36.487Z,36.60
2018-07-30T11:58:23.407Z,36.80
2018-07-30T12:01:09.594Z,36.80
2018-07-30T12:09:34.631Z,36.40
2018-07-30T12:18:11.195Z,35.20
2018-07-30T12:20:54.630Z,35.80
2018-07-30T12:23:35.906Z,36.10
2018-07-30T12:26:32.037Z,36.50
2018-07-30T12:29:31.155Z,36.40
2018-07-30T12:35:01.500Z,36.50
2018-07-30T12:37:38.896Z,36.70
2018-07-30T12:44:26.351Z,36.80
2018-07-30T12:47:25.005Z,37.00
2018-07-30T12:56:06.018Z,36.90
2018-07-30T12:58:53.578Z,36.90
2018-07-30T13:01:36.119Z,36.90
2018-07-30T13:04:21.005Z,36.80
2018-07-30T13:06:59.679Z,36.60
2018-07-30T13:09:47.680Z,36.50
2018-07-30T13:15:56.052Z,36.30
2018-07-30T13:18:45.010Z,36.10
2018-07-30T13:21:27.472Z,35.30
2018-07-30T13:24:02.607Z,35.30
2018-07-30T13:26:43.638Z,34.70
2018-07-30T13:41:22.986Z,35.60
2018-07-30T13:43:59.878Z,35.50
2018-07-30T13:46:58.260Z,35.40
2018-07-30T13:50:03.598Z,35.30
2018-07-30T13:55:33.869Z,35.50
2018-07-30T13:58:19.551Z,35.50
2018-07-30T14:01:00.186Z,35.60
2018-07-30T14:03:39.109Z,35.70
2018-07-30T14:09:22.210Z,35.50
2018-07-30T14:12:10.903Z,35.50
2018-07-30T14:15:01.509Z,35.50
2018-07-30T14:17:57.626Z,35.40
2018-07-30T14:23:46.772Z,35.30
2018-07-30T14:29:51.913Z,35.40
2018-07-30T14:32:45.914Z,35.60
2018-07-30T14:41:29.024Z,35.50
2018-07-30T14:44:20.339Z,35.30
2018-07-30T14:47:05.105Z,35.10
2018-07-30T14:56:44.179Z,35.20
2018-07-30T15:03:09.350Z,34.90
2018-07-30T15:25:06.116Z,34.90
2018-07-30T15:28:15.850Z,34.80
2018-07-30T15:34:33.899Z,34.40
2018-07-30T16:06:15.929Z,34.00
2018-07-30T16:09:11.956Z,34.00
2018-07-30T16:12:00.224Z,34.00
2018-07-30T16:14:53.158Z,34.10
2018-07-30T16:17:23.003Z,34.00
2018-07-30T16:19:55.582Z,33.90
2018-07-30T16:22:26.956Z,34.00
2018-07-30T16:24:56.534Z,34.00
2018-07-30T16:27:28.079Z,34.00
2018-07-30T16:29:58.197Z,33.80
2018-07-30T16:32:30.159Z,33.80
2018-07-30T16:35:00.380Z,33.70
2018-07-30T16:37:32.146Z,33.60
2018-07-30T16:40:02.598Z,33.50
2018-07-30T16:43:23.335Z,33.40
2018-07-30T16:45:59.501Z,33.20
2018-07-30T16:48:42.861Z,33.30
2018-07-30T16:51:14.148Z,33.20
2018-07-30T16:56:12.911Z,33.30
2018-07-30T16:58:41.949Z,33.20
2018-07-30T17:01:11.224Z,33.10
2018-07-30T17:03:40.614Z,33.00
2018-07-30T17:06:11.955Z,32.90
2018-07-30T17:08:41.160Z,32.90
2018-07-30T17:11:10.447Z,32.80
2018-07-30T17:13:40.895Z,32.80
2018-07-30T17:16:10.688Z,32.70
2018-07-30T17:18:40.724Z,32.60
2018-07-30T17:21:14.274Z,32.70
2018-07-30T17:23:56.838Z,32.60
2018-07-30T17:26:30.632Z,32.60
2018-07-30T17:29:02.137Z,32.50
2018-07-30T17:31:33.120Z,32.30
2018-07-30T17:39:08.188Z,32.20
2018-07-30T17:41:39.542Z,32.20
2018-07-30T17:44:12.425Z,32.20
2018-07-30T17:46:43.113Z,32.10
2018-07-30T17:49:12.360Z,32.00
2018-07-30T17:51:42.172Z,32.00
2018-07-30T17:54:13.846Z,32.00
2018-07-30T17:56:43.634Z,32.00
2018-07-30T17:59:13.311Z,31.90
2018-07-30T18:01:43.362Z,31.70
2018-07-30T18:04:54.629Z,31.60
2018-07-30T18:07:25.230Z,31.50
2018-07-30T18:09:56.632Z,31.40
2018-07-30T18:12:31.569Z,31.40
2018-07-30T18:15:07.357Z,31.20
2018-07-30T18:17:37.276Z,31.10
2018-07-30T18:20:09.371Z,31.00
2018-07-30T18:22:41.414Z,30.90
2018-07-30T18:25:11.492Z,30.80
2018-07-30T18:27:41.286Z,30.70
2018-07-30T18:30:11.687Z,30.60
2018-07-30T18:32:41.177Z,30.50
2018-07-30T18:35:11.936Z,30.30
2018-07-30T18:37:42.460Z,30.20
2018-07-30T18:40:12.617Z,30.10
2018-07-30T18:42:41.868Z,30.10
2018-07-30T18:45:11.114Z,30.00
2018-07-30T18:47:41.293Z,29.90
2018-07-30T18:50:10.890Z,29.80
2018-07-30T18:52:40.455Z,29.70
2018-07-30T18:55:09.819Z,29.70
2018-07-30T18:57:40.537Z,29.60
2018-07-30T19:00:10.710Z,29.50
2018-07-30T19:02:40.408Z,29.40
2018-07-30T19:05:09.993Z,29.30
2018-07-30T19:07:39.279Z,29.20
2018-07-30T19:10:09.390Z,29.10
2018-07-30T19:12:39.023Z,29.00
2018-07-30T19:15:09.012Z,28.90
2018-07-30T19:17:39.030Z,28.90
2018-07-30T19:20:08.342Z,28.90
2018-07-30T19:22:37.573Z,28.90
2018-07-30T19:25:07.131Z,28.80
2018-07-30T19:27:37.682Z,28.80
2018-07-30T19:30:08.324Z,28.70
2018-07-30T19:32:37.611Z,28.70
2018-07-30T19:35:07.624Z,28.60
2018-07-30T19:37:37.649Z,28.50
2018-07-30T19:42:37.508Z,28.40
2018-07-30T19:45:07.911Z,28.40
2018-07-30T19:47:38.685Z,28.30
2018-07-30T19:50:09.384Z,28.20
2018-07-30T19:52:39.738Z,28.20
2018-07-30T19:55:10.128Z,28.10
2018-07-30T19:57:41.905Z,28.00
2018-07-30T20:00:19.902Z,28.00
2018-07-30T20:02:50.711Z,28.00
2018-07-30T20:05:22.278Z,27.90
2018-07-30T20:10:21.799Z,28.00
2018-07-30T20:12:54.052Z,27.90
2018-07-30T20:15:26.550Z,27.90
2018-07-30T20:17:57.605Z,27.80
2018-07-30T20:20:27.351Z,27.70
2018-07-30T20:22:56.843Z,27.60
2018-07-30T20:25:36.222Z,27.50
2018-07-30T20:28:05.698Z,27.40
2018-07-30T20:30:36.667Z,27.30
2018-07-30T20:33:09.820Z,27.30
2018-07-30T20:35:42.606Z,27.20
2018-07-30T20:38:20.045Z,27.10
2018-07-30T20:41:03.574Z,27.10
2018-07-30T20:43:42.490Z,27.10
2018-07-30T20:46:35.327Z,27.00
2018-07-30T20:52:45.875Z,26.80
2018-07-30T21:05:14.535Z,26.50
2018-07-30T21:15:33.385Z,26.40
2018-07-30T21:18:40.664Z,26.20
2018-07-30T21:21:34.434Z,26.00
2018-07-30T21:29:14.179Z,26.00
2018-07-30T21:42:29.119Z,25.80
2018-07-30T21:45:02.949Z,25.70
2018-07-30T21:47:34.818Z,25.60
2018-07-30T21:50:08.515Z,25.60
2018-07-30T21:52:54.463Z,25.50
2018-07-30T21:55:34.213Z,25.50
2018-07-30T21:58:08.325Z,25.50
2018-07-30T22:00:43.356Z,25.50
2018-07-30T22:03:18.900Z,25.50
2018-07-30T22:06:02.849Z,25.50
2018-07-30T22:08:39.236Z,25.40
2018-07-30T22:11:17.937Z,25.40
2018-07-30T22:13:56.758Z,25.50
2018-07-30T22:16:32.728Z,25.40
2018-07-30T22:19:09.426Z,25.30
2018-07-30T22:21:47.301Z,25.30
2018-07-30T22:24:24.289Z,25.20
2018-07-30T22:26:58.541Z,25.20
2018-07-30T22:29:32.627Z,25.10
2018-07-30T22:32:34.667Z,25.00
2018-07-30T22:35:13.798Z,24.90
2018-07-30T22:38:05.115Z,24.90
2018-07-30T22:43:47.672Z,24.90
2018-07-30T22:46:29.644Z,24.80
2018-07-30T22:49:08.278Z,24.90
2018-07-30T22:54:47.947Z,24.80
2018-07-30T22:57:32.508Z,24.70
2018-07-30T23:00:05.986Z,24.70
2018-07-30T23:02:39.076Z,24.60
2018-07-30T23:05:12.092Z,24.60
2018-07-30T23:07:45.119Z,24.60
2018-07-30T23:10:31.773Z,24.50
2018-07-30T23:13:08.550Z,24.60
2018-07-30T23:15:46.917Z,24.50
2018-07-30T23:18:36.085Z,24.40
2018-07-30T23:21:18.624Z,24.30
2018-07-30T23:30:16.632Z,24.40
2018-07-30T23:38:45.268Z,24.20
2018-07-30T23:41:37.558Z,24.10
2018-07-30T23:46:58.205Z,23.80
2018-07-30T23:49:42.318Z,23.80
2018-07-30T23:52:22.096Z,23.80
2018-07-30T23:55:09.187Z,23.90
